Time;durP1;ratioP1;P1;durP2;ratioP2;P2;SDS_P1;SDS_P2;PMS_P1;PMS_P2;Temp;Humidity;BMP_temperature;BMP_pressure;BME280_temperature;BME280_humidity;BME280_pressure;Samples;Min_cycle;Max_cycle;Signal;HPM_P1;HPM_P2
2022/02/25 00:01:19;;;;;;;5.10;2.50;;;;;;;2.75;65.17;100102.03;10381775;28;20046;-69
2022/02/25 00:06:21;;;;;;;5.53;2.70;;;;;;;2.80;64.78;100102.78;10382057;28;20049;-69
2022/02/25 00:11:23;;;;;;;4.82;2.58;;;;;;;2.58;65.14;100111.09;10380127;28;20056;-69
2022/02/25 00:16:25;;;;;;;7.53;2.60;;;;;;;2.46;65.28;100101.88;10376571;28;20062;-69
2022/02/25 00:21:26;;;;;;;6.07;2.78;;;;;;;2.30;65.33;100107.47;10380110;28;20433;-69
2022/02/25 00:26:28;;;;;;;6.38;2.78;;;;;;;2.14;65.39;100114.69;10387335;28;20059;-69
2022/02/25 00:31:30;;;;;;;6.22;2.75;;;;;;;2.08;66.08;100126.00;10388683;28;20300;-69
2022/02/25 00:36:32;;;;;;;10.15;3.05;;;;;;;2.10;66.08;100133.72;10387244;28;20049;-69
2022/02/25 00:41:34;;;;;;;6.53;2.97;;;;;;;2.16;66.30;100143.88;10384459;28;20045;-68
2022/02/25 00:46:36;;;;;;;6.65;2.70;;;;;;;2.20;66.17;100153.25;10388922;28;21039;-68
2022/02/25 00:51:38;;;;;;;7.38;2.83;;;;;;;2.23;65.95;100166.09;10386820;28;20052;-68
2022/02/25 00:56:39;;;;;;;6.22;2.42;;;;;;;2.14;65.86;100161.13;10389810;28;20548;-68
2022/02/25 01:01:42;;;;;;;11.77;3.08;;;;;;;2.04;65.90;100172.53;10389723;28;20049;-68
2022/02/25 01:06:44;;;;;;;7.15;2.50;;;;;;;1.93;66.16;100170.19;10389619;28;20045;-68
2022/02/25 01:11:46;;;;;;;5.88;2.25;;;;;;;1.88;65.64;100174.59;10388281;28;20052;-68
2022/02/25 01:16:48;;;;;;;10.43;2.60;;;;;;;1.81;66.00;100177.31;10388813;28;20061;-68
2022/02/25 01:21:49;;;;;;;5.43;2.70;;;;;;;1.88;65.46;100184.06;10389185;28;20053;-68
2022/02/25 01:26:51;;;;;;;7.70;2.70;;;;;;;1.86;65.38;100185.81;10419564;28;20417;-68
2022/02/25 01:31:53;;;;;;;10.77;2.70;;;;;;;1.80;65.50;100189.38;10386757;28;20148;-68
2022/02/25 01:36:54;;;;;;;7.95;2.45;;;;;;;1.76;65.18;100189.47;10387704;28;20107;-68
2022/02/25 01:41:56;;;;;;;8.13;2.30;;;;;;;1.74;65.23;100204.13;10385869;28;20145;-68
2022/02/25 01:47:05;;;;;;;7.45;2.33;;;;;;;1.66;65.34;100203.41;10388530;28;20088;-68
2022/02/25 01:52:12;;;;;;;8.50;2.47;;;;;;;1.63;64.81;100208.63;10386766;28;20063;-68
2022/02/25 01:57:15;;;;;;;7.38;2.05;;;;;;;1.63;64.88;100203.47;10385978;28;20159;-68
2022/02/25 02:02:17;;;;;;;7.97;1.90;;;;;;;1.67;64.55;100207.69;10386220;28;20054;-68
2022/02/25 02:07:19;;;;;;;7.60;2.22;;;;;;;1.70;64.56;100210.22;10386870;28;20083;-68
2022/02/25 02:12:20;;;;;;;6.38;1.90;;;;;;;1.61;64.53;100210.38;10386231;28;20049;-68
2022/02/25 02:17:22;;;;;;;7.72;2.08;;;;;;;1.59;64.54;100225.03;10384852;28;20405;-68
2022/02/25 02:22:25;;;;;;;9.55;2.15;;;;;;;1.55;64.62;100226.81;10385937;28;20397;-68
2022/02/25 02:32:50;;;;;;;7.97;1.97;;;;;;;1.38;65.02;100228.84;10386375;28;20059;-68
2022/02/25 02:37:52;;;;;;;7.30;1.90;;;;;;;1.38;65.00;100234.84;10384707;28;20489;-68
2022/02/25 02:42:54;;;;;;;9.25;2.42;;;;;;;1.32;65.01;100229.81;10385534;28;20366;-68
2022/02/25 02:47:56;;;;;;;9.95;2.40;;;;;;;1.33;65.11;100249.56;10384917;28;20050;-68
2022/02/25 02:52:58;;;;;;;9.80;2.13;;;;;;;1.23;65.09;100248.00;10385369;28;20053;-68
2022/02/25 02:57:59;;;;;;;7.82;2.00;;;;;;;1.20;65.24;100253.19;10383183;28;20259;-68
2022/02/25 03:03:01;;;;;;;11.80;2.17;;;;;;;1.19;65.14;100259.25;10387920;28;20128;-68
2022/02/25 03:08:05;;;;;;;10.30;1.98;;;;;;;1.18;65.30;100261.81;10392030;28;20061;-68
2022/02/25 03:13:07;;;;;;;10.23;2.13;;;;;;;1.16;65.17;100264.44;10390835;28;20128;-68
2022/02/25 03:18:09;;;;;;;6.75;2.05;;;;;;;1.14;65.23;100266.19;10390822;28;20063;-67
2022/02/25 03:23:12;;;;;;;8.38;2.00;;;;;;;1.06;65.54;100260.31;10392162;28;20296;-68
2022/02/25 03:28:14;;;;;;;11.07;2.38;;;;;;;1.11;65.22;100268.81;10390127;28;20145;-67
2022/02/25 03:33:16;;;;;;;7.85;1.90;;;;;;;1.09;65.42;100268.00;10390713;28;20576;-68
2022/02/25 03:38:18;;;;;;;9.70;2.30;;;;;;;1.05;65.44;100276.66;10390107;28;20053;-68
2022/02/25 03:43:20;;;;;;;10.65;1.98;;;;;;;1.05;65.46;100274.09;10390617;28;20052;-68
2022/02/25 03:48:22;;;;;;;8.82;2.28;;;;;;;1.00;65.67;100267.28;10389916;28;20698;-68
2022/02/25 03:53:23;;;;;;;11.55;2.78;;;;;;;1.05;65.31;100280.94;10391941;28;20120;-67
2022/02/25 03:58:25;;;;;;;12.25;2.30;;;;;;;1.01;65.23;100285.31;10397031;28;20071;-68
2022/02/25 04:03:27;;;;;;;9.30;2.63;;;;;;;1.03;65.10;100282.69;10394688;28;20451;-69
2022/02/25 04:08:30;;;;;;;8.75;2.40;;;;;;;1.02;65.04;100286.13;10393136;28;20516;-67
2022/02/25 04:13:34;;;;;;;10.77;2.35;;;;;;;0.97;65.07;100290.50;10389776;28;20073;-68
2022/02/25 04:18:36;;;;;;;6.95;2.30;;;;;;;0.94;65.43;100293.97;10391303;28;20061;-67
2022/02/25 04:23:37;;;;;;;11.73;2.65;;;;;;;0.93;65.23;100281.97;10391620;28;20051;-67
2022/02/25 04:28:39;;;;;;;11.13;2.53;;;;;;;0.82;65.37;100285.59;10391868;28;20059;-67
2022/02/25 04:33:41;;;;;;;9.23;2.30;;;;;;;0.79;65.52;100289.03;10389510;28;20049;-67
2022/02/25 04:38:43;;;;;;;14.20;2.67;;;;;;;0.81;65.52;100287.31;10389834;28;20055;-68
2022/02/25 04:43:45;;;;;;;11.88;2.17;;;;;;;0.72;65.81;100295.16;10390102;28;20046;-67
2022/02/25 04:48:47;;;;;;;8.65;2.10;;;;;;;0.76;65.64;100291.69;10389768;28;20498;-67
2022/02/25 04:53:49;;;;;;;10.32;2.63;;;;;;;0.71;65.63;100290.88;10390269;28;20124;-66
2022/02/25 04:58:52;;;;;;;10.05;2.40;;;;;;;0.67;65.86;100301.25;10389453;28;20571;-66
2022/02/25 05:03:56;;;;;;;12.93;2.70;;;;;;;0.70;65.74;100299.50;10388543;28;20103;-66
2022/02/25 05:08:58;;;;;;;8.55;2.40;;;;;;;0.67;65.71;100306.41;10387921;28;20445;-66
2022/02/25 05:14:02;;;;;;;12.63;2.47;;;;;;;0.66;65.94;100317.56;10389746;28;20064;-67
2022/02/25 05:24:24;;;;;;;14.85;2.20;;;;;;;0.62;65.90;100314.19;10389056;28;20055;-66
2022/02/25 05:29:27;;;;;;;25.85;9.02;;;;;;;0.62;66.02;100319.34;10388449;28;20417;-66
2022/02/25 05:34:29;;;;;;;10.75;2.88;;;;;;;0.59;65.91;100315.97;10386570;28;20056;-66
2022/02/25 05:39:31;;;;;;;14.82;4.65;;;;;;;0.65;65.83;100315.88;10388187;28;20053;-66
2022/02/25 05:44:32;;;;;;;12.70;3.03;;;;;;;0.64;65.72;100320.16;10387137;28;20054;-67
2022/02/25 05:49:34;;;;;;;10.88;2.17;;;;;;;0.62;65.76;100329.63;10387901;28;20076;-67
2022/02/25 05:54:36;;;;;;;14.50;2.88;;;;;;;0.65;65.57;100329.56;10387329;28;20668;-67
2022/02/25 05:59:38;;;;;;;11.48;2.40;;;;;;;0.64;65.77;100335.59;10387674;28;20049;-66
2022/02/25 06:04:39;;;;;;;11.48;2.40;;;;;;;0.63;65.65;100344.19;10386526;28;20045;-66
2022/02/25 06:09:41;;;;;;;16.10;2.92;;;;;;;0.66;65.52;100348.44;10387490;28;20047;-66
2022/02/25 06:14:43;;;;;;;11.13;2.80;;;;;;;0.66;65.73;100343.31;10386468;28;20080;-66
2022/02/25 06:19:44;;;;;;;12.73;2.50;;;;;;;0.58;65.80;100351.13;10384971;28;20052;-66
2022/02/25 06:24:50;;;;;;;16.75;3.00;;;;;;;0.64;65.43;100358.78;10385347;28;20055;-66
2022/02/25 06:29:52;;;;;;;12.43;3.30;;;;;;;0.65;65.58;100360.47;10385284;28;20045;-65
2022/02/25 06:34:54;;;;;;;14.38;2.92;;;;;;;0.69;65.40;100359.56;10385176;28;20049;-66
2022/02/25 06:39:56;;;;;;;10.88;2.40;;;;;;;0.72;65.59;100362.09;10385999;28;20059;-65
2022/02/25 06:44:58;;;;;;;9.75;2.53;;;;;;;0.59;65.87;100373.41;10385376;28;20164;-66
2022/02/25 06:50:00;;;;;;;10.48;2.22;;;;;;;0.72;65.78;100366.38;10385048;28;20042;-66
2022/02/25 06:55:02;;;;;;;11.80;2.42;;;;;;;0.78;65.55;100377.47;10384135;28;20132;-67
2022/02/25 07:00:24;;;;;;;14.85;2.67;;;;;;;0.76;65.60;100383.50;10384242;28;20049;-65
2022/02/25 07:05:26;;;;;;;10.55;2.53;;;;;;;0.81;65.48;100390.28;10384396;28;20052;-66
2022/02/25 07:10:29;;;;;;;11.13;2.60;;;;;;;0.75;65.76;100403.22;10385612;28;20501;-66
2022/02/25 07:15:32;;;;;;;15.40;2.53;;;;;;;0.89;65.33;100403.06;10384137;28;20049;-67
2022/02/25 07:20:34;;;;;;;16.92;2.53;;;;;;;1.04;65.06;100406.28;10383899;28;20518;-67
2022/02/25 07:25:36;;;;;;;15.35;2.90;;;;;;;1.05;65.20;100410.59;10385405;28;20085;-67
2022/02/25 07:30:38;;;;;;;11.05;2.70;;;;;;;1.31;64.67;100411.06;10384818;28;20161;-67
2022/02/25 07:35:40;;;;;;;13.75;2.83;;;;;;;1.34;64.64;100413.56;10390117;28;20056;-67
2022/02/25 07:40:42;;;;;;;9.38;2.75;;;;;;;1.51;64.10;100404.72;10393570;28;20054;-67
2022/02/25 07:45:43;;;;;;;11.45;2.65;;;;;;;1.64;63.89;100417.44;10391814;28;20061;-67
2022/02/25 07:50:46;;;;;;;13.20;2.65;;;;;;;1.88;63.55;100419.59;10392673;28;20486;-67
2022/02/25 07:55:48;;;;;;;15.18;2.60;;;;;;;2.19;63.22;100422.50;10391572;28;20410;-66
2022/02/25 08:00:50;;;;;;;14.32;3.13;;;;;;;2.48;62.54;100417.63;10391713;28;20045;-67
2022/02/25 08:05:52;;;;;;;13.73;3.13;;;;;;;2.72;61.43;100422.34;10392043;28;20490;-66
2022/02/25 08:10:54;;;;;;;14.63;2.70;;;;;;;2.78;60.91;100429.09;10390970;28;20384;-67
2022/02/25 08:15:56;;;;;;;16.58;3.40;;;;;;;3.20;60.49;100424.75;10391176;28;20476;-66
2022/02/25 08:20:58;;;;;;;14.45;2.92;;;;;;;3.57;59.44;100433.38;10390384;28;20046;-66
2022/02/25 08:26:00;;;;;;;17.35;2.90;;;;;;;4.03;58.28;100423.63;10390641;28;20049;-66
2022/02/25 08:31:02;;;;;;;17.20;3.08;;;;;;;4.04;58.27;100427.09;10389885;28;20049;-67
2022/02/25 08:36:05;;;;;;;14.38;2.72;;;;;;;4.10;56.93;100424.34;10389976;28;20050;-67
2022/02/25 08:41:09;;;;;;;15.23;2.70;;;;;;;4.48;57.18;100425.03;10381163;28;20056;-67
2022/02/25 08:46:11;;;;;;;14.45;3.00;;;;;;;4.01;57.50;100435.75;10388581;28;20061;-67
2022/02/25 08:51:13;;;;;;;16.48;3.20;;;;;;;3.52;58.58;100427.44;10390071;28;20056;-67
2022/02/25 08:56:15;;;;;;;13.57;3.10;;;;;;;3.52;58.86;100430.03;10389087;28;20052;-67
2022/02/25 09:01:17;;;;;;;17.27;3.17;;;;;;;3.44;58.85;100432.81;10388706;28;20207;-67
2022/02/25 09:06:19;;;;;;;11.65;2.58;;;;;;;3.32;58.54;100442.56;10388386;28;20049;-67
2022/02/25 09:11:22;;;;;;;16.38;3.10;;;;;;;3.73;57.72;100445.91;10387956;28;20049;-67
2022/02/25 09:16:24;;;;;;;14.45;2.85;;;;;;;3.81;57.75;100446.59;10389186;28;20049;-67
2022/02/25 09:21:28;;;;;;;16.27;3.05;;;;;;;4.33;56.30;100447.91;10387859;28;20053;-67
2022/02/25 09:26:32;;;;;;;20.02;3.08;;;;;;;4.33;56.42;100451.31;10388266;28;20049;-67
2022/02/25 09:31:34;;;;;;;12.32;2.67;;;;;;;4.61;55.71;100448.88;10387841;28;20060;-67
2022/02/25 09:36:36;;;;;;;13.48;3.00;;;;;;;5.05;55.21;100442.41;10388024;28;20427;-67
2022/02/25 09:41:39;;;;;;;15.50;2.97;;;;;;;5.20;54.62;100434.19;10387358;28;20041;-67
2022/02/25 09:46:46;;;;;;;11.80;2.80;;;;;;;4.96;55.12;100446.16;10387959;28;20052;-67
2022/02/25 09:51:48;;;;;;;16.13;3.60;;;;;;;4.83;54.91;100444.78;10387738;28;20049;-67
2022/02/25 09:56:50;;;;;;;14.88;3.13;;;;;;;4.82;55.15;100450.84;10386140;28;20084;-67
2022/02/25 10:01:52;;;;;;;17.77;3.08;;;;;;;4.66;55.24;100454.75;10386258;28;20625;-67
2022/02/25 10:06:59;;;;;;;13.45;2.88;;;;;;;4.83;55.33;100459.47;10374525;28;20536;-67
2022/02/25 10:12:03;;;;;;;13.63;2.97;;;;;;;4.74;55.74;100472.69;10385079;28;20045;-67
2022/02/25 10:17:13;;;;;;;10.85;3.03;;;;;;;4.49;57.13;100478.53;10383424;28;20382;-67
2022/02/25 10:22:24;;;;;;;17.00;3.50;;;;;;;4.48;58.15;100476.81;10373919;28;20053;-67
2022/02/25 10:27:35;;;;;;;17.95;3.70;;;;;;;4.26;58.52;100485.19;10382434;28;20145;-67
2022/02/25 10:32:39;;;;;;;13.13;3.93;;;;;;;4.27;58.80;100490.31;10381720;28;20060;-67
2022/02/25 10:38:03;;;;;;;17.35;4.10;;;;;;;4.56;57.77;100484.38;10382249;28;20312;-67
2022/02/25 10:43:26;;;;;;;11.43;2.80;;;;;;;4.43;58.92;100490.78;10379853;28;20046;-67
2022/02/25 10:48:29;;;;;;;8.73;2.88;;;;;;;4.61;58.74;100501.53;10384007;28;20145;-63
2022/02/25 10:53:37;;;;;;;17.75;3.15;;;;;;;4.89;58.06;100506.81;10385551;28;20413;-63
2022/02/25 10:58:41;;;;;;;10.63;3.17;;;;;;;4.71;58.78;100509.91;10381973;28;20399;-64
2022/02/25 11:04:02;;;;;;;12.00;3.13;;;;;;;4.85;58.55;100522.47;10385277;28;20570;-64
2022/02/25 11:09:05;;;;;;;14.68;3.03;;;;;;;4.87;58.84;100512.91;10383645;28;20049;-64
2022/02/25 11:14:10;;;;;;;11.27;3.03;;;;;;;4.96;58.66;100517.84;10384973;28;20057;-65
2022/02/25 11:19:12;;;;;;;13.20;3.28;;;;;;;5.02;58.37;100525.47;10385356;28;20045;-64
2022/02/25 11:24:14;;;;;;;14.95;3.20;;;;;;;5.02;58.42;100526.31;10374029;28;20048;-64
2022/02/25 11:29:18;;;;;;;12.48;3.15;;;;;;;5.47;57.53;100527.56;10382558;28;20045;-64
2022/02/25 11:34:20;;;;;;;9.45;2.67;;;;;;;5.90;56.14;100527.13;10383637;28;20061;-63
2022/02/25 11:39:30;;;;;;;9.38;3.10;;;;;;;5.93;56.24;100534.84;10383666;28;20164;-63
2022/02/25 11:44:32;;;;;;;8.73;2.58;;;;;;;5.66;56.63;100522.69;10382450;28;20207;-64
2022/02/25 11:49:37;;;;;;;11.02;3.00;;;;;;;5.75;56.61;100525.03;10384235;28;20498;-64
2022/02/25 11:54:46;;;;;;;14.15;3.15;;;;;;;5.84;56.07;100514.34;10384858;28;20049;-64
2022/02/25 11:59:48;;;;;;;18.15;2.90;;;;;;;5.94;56.00;100517.53;10376675;28;20049;-64
2022/02/25 12:05:04;;;;;;;10.98;2.88;;;;;;;6.01;55.59;100516.41;10385074;28;20444;-64
2022/02/25 12:10:12;;;;;;;13.65;2.97;;;;;;;6.28;55.38;100524.22;10384496;28;20049;-64
2022/02/25 12:15:38;;;;;;;15.07;3.03;;;;;;;6.26;55.60;100520.81;10384172;28;20109;-64
2022/02/25 12:20:44;;;;;;;11.95;2.58;;;;;;;6.30;54.82;100517.22;10386230;28;20049;-63
2022/02/25 12:25:55;;;;;;;13.60;3.28;;;;;;;6.71;52.91;100514.97;10390976;28;20668;-63
2022/02/25 12:31:01;;;;;;;14.30;3.05;;;;;;;6.95;52.62;100516.69;10373872;28;20406;-63
2022/02/25 12:36:20;;;;;;;11.85;3.22;;;;;;;6.97;52.32;100501.88;10391060;28;20057;-63
2022/02/25 12:41:25;;;;;;;12.45;2.70;;;;;;;7.36;52.39;100491.75;10389865;28;20486;-63
2022/02/25 12:46:31;;;;;;;12.40;2.90;;;;;;;7.52;52.03;100496.34;10391355;28;20203;-63
2022/02/25 12:51:33;;;;;;;10.27;2.67;;;;;;;7.19;52.07;100510.59;10390583;28;20420;-63
2022/02/25 12:56:57;;;;;;;14.23;3.13;;;;;;;6.99;53.46;100515.69;10389582;28;20107;-63
2022/02/25 13:02:01;;;;;;;11.32;3.55;;;;;;;6.60;54.11;100532.66;10390510;28;20137;-63
2022/02/25 13:07:07;;;;;;;15.85;3.33;;;;;;;5.92;56.82;100561.69;10389906;28;20041;-63
2022/02/25 13:12:16;;;;;;;11.93;3.35;;;;;;;5.62;59.18;100561.75;10389019;28;21794;-63
2022/02/25 13:17:21;;;;;;;16.17;3.83;;;;;;;6.00;58.21;100546.72;10389766;28;20054;-63
2022/02/25 13:22:37;;;;;;;14.00;4.00;;;;;;;6.03;57.95;100538.84;10386409;28;20510;-63
2022/02/25 13:27:46;;;;;;;14.20;3.42;;;;;;;6.29;58.08;100540.63;10385460;28;20045;-63
2022/02/25 13:32:54;;;;;;;12.40;3.65;;;;;;;6.32;57.82;100533.59;10388304;28;20453;-62
2022/02/25 13:37:59;;;;;;;12.20;2.70;;;;;;;6.66;57.62;100519.44;10402526;28;20053;-63
2022/02/25 13:43:03;;;;;;;11.35;3.15;;;;;;;6.69;56.58;100512.41;10387621;28;20068;-63
2022/02/25 13:53:38;;;;;;;12.77;2.50;;;;;;;6.66;55.83;100514.25;10387731;28;20057;-63
2022/02/25 13:58:40;;;;;;;11.40;2.80;;;;;;;6.91;55.49;100507.31;10388048;28;20053;-63
2022/02/25 14:03:43;;;;;;;13.20;2.47;;;;;;;7.13;54.35;100518.63;10388151;28;20049;-63
2022/02/25 14:08:51;;;;;;;13.35;2.67;;;;;;;7.35;53.57;100511.72;10387574;28;20051;-63
2022/02/25 14:13:52;;;;;;;11.05;2.42;;;;;;;7.39;52.58;100507.25;10387914;28;20045;-63
2022/02/25 14:19:17;;;;;;;10.05;2.03;;;;;;;7.45;50.73;100502.66;10386939;28;20056;-63
2022/02/25 14:24:27;;;;;;;9.82;2.30;;;;;;;7.63;50.60;100501.97;10386556;28;20046;-63
2022/02/25 14:29:30;;;;;;;12.32;2.40;;;;;;;7.61;51.47;100513.38;10369728;28;20053;-64
2022/02/25 14:34:41;;;;;;;13.13;2.33;;;;;;;7.39;49.60;100515.91;10386415;28;20902;-63
2022/02/25 14:39:44;;;;;;;10.68;2.75;;;;;;;6.92;51.13;100574.00;10386151;28;20053;-63
2022/02/25 14:44:46;;;;;;;14.20;2.55;;;;;;;6.66;52.59;100613.03;10386259;28;20047;-63
2022/02/25 14:49:48;;;;;;;10.57;2.45;;;;;;;5.81;56.34;100633.84;10385897;28;20132;-64
2022/02/25 14:54:50;;;;;;;9.93;2.40;;;;;;;5.27;58.28;100651.78;10386216;28;20057;-63
2022/02/25 14:59:51;;;;;;;8.88;2.20;;;;;;;4.90;59.37;100648.47;10384297;28;20064;-64
2022/02/25 15:04:53;;;;;;;8.20;2.35;;;;;;;4.94;59.40;100638.88;10382167;28;20049;-64
2022/02/25 15:09:55;;;;;;;6.03;2.03;;;;;;;5.03;59.65;100644.66;10384546;28;20059;-63
2022/02/25 15:14:57;;;;;;;9.07;2.20;;;;;;;5.02;60.04;100671.50;10383540;28;20041;-63
2022/02/25 15:19:59;;;;;;;7.70;2.30;;;;;;;5.20;60.13;100677.94;10383109;28;20049;-63
2022/02/25 15:25:01;;;;;;;12.50;3.00;;;;;;;5.32;60.19;100696.63;10384047;28;20413;-63
2022/02/25 15:30:05;;;;;;;7.57;2.30;;;;;;;5.03;60.49;100690.47;10382151;28;20050;-63
2022/02/25 15:35:07;;;;;;;11.18;2.28;;;;;;;4.84;60.58;100686.66;10384320;28;20052;-64
2022/02/25 15:40:10;;;;;;;10.40;2.38;;;;;;;4.71;60.62;100696.44;10383961;28;20241;-63
2022/02/25 15:45:12;;;;;;;11.02;2.63;;;;;;;4.75;60.72;100705.00;10383824;28;20107;-63
2022/02/25 15:50:14;;;;;;;11.82;2.58;;;;;;;4.65;61.20;100709.53;10383788;28;20049;-63
2022/02/25 15:55:15;;;;;;;7.57;2.03;;;;;;;4.60;61.63;100726.91;10391814;28;20045;-63
2022/02/25 16:00:17;;;;;;;12.65;2.92;;;;;;;4.51;62.00;100730.59;10392073;28;21021;-63
2022/02/25 16:05:19;;;;;;;10.32;2.30;;;;;;;4.20;63.05;100747.66;10391380;28;20045;-64
2022/02/25 16:10:23;;;;;;;11.02;2.35;;;;;;;4.11;63.44;100747.00;10391674;28;20056;-64
2022/02/25 16:15:25;;;;;;;4.85;1.80;;;;;;;3.92;63.76;100759.47;10390947;28;20121;-63
2022/02/25 16:20:27;;;;;;;6.75;2.13;;;;;;;3.88;63.90;100752.66;10389666;28;20140;-64
2022/02/25 16:25:29;;;;;;;9.50;2.33;;;;;;;3.65;64.57;100742.69;10391311;28;20049;-64
2022/02/25 16:30:31;;;;;;;10.05;2.90;;;;;;;3.65;64.65;100741.84;10389773;28;20156;-63
2022/02/25 16:35:33;;;;;;;11.95;2.50;;;;;;;3.61;64.65;100746.22;10389909;28;20328;-63
2022/02/25 16:40:35;;;;;;;10.10;2.90;;;;;;;3.52;65.04;100768.78;10379585;28;20049;-64
2022/02/25 16:45:40;;;;;;;8.68;2.20;;;;;;;3.43;64.92;100787.06;10380383;28;20164;-63
2022/02/25 16:50:42;;;;;;;7.90;2.25;;;;;;;3.39;64.87;100806.09;10380628;28;20049;-63
2022/02/25 16:55:44;;;;;;;6.03;2.00;;;;;;;3.14;65.56;100818.56;10386648;28;20064;-63
2022/02/25 17:00:46;;;;;;;5.13;1.83;;;;;;;3.20;65.18;100840.88;10380566;28;20303;-63
2022/02/25 17:05:48;;;;;;;6.97;1.70;;;;;;;3.32;64.55;100848.44;10384365;28;20159;-64
2022/02/25 17:10:50;;;;;;;5.93;2.22;;;;;;;3.22;64.93;100865.81;10377614;28;20088;-64
2022/02/25 17:15:52;;;;;;;7.00;1.85;;;;;;;3.16;65.16;100871.09;10384284;28;20049;-64
2022/02/25 17:20:54;;;;;;;7.00;1.88;;;;;;;3.12;65.51;100889.25;10383271;28;20510;-64
2022/02/25 17:25:55;;;;;;;7.75;2.00;;;;;;;3.09;65.92;100899.63;10385734;28;20301;-64
2022/02/25 17:30:57;;;;;;;5.35;2.00;;;;;;;3.17;65.87;100908.13;10375579;28;20053;-63
2022/02/25 17:35:59;;;;;;;5.45;2.10;;;;;;;3.36;65.45;100914.72;10383123;28;20049;-64
2022/02/25 17:41:02;;;;;;;6.65;2.45;;;;;;;3.57;65.20;100935.97;10383321;28;20076;-64
2022/02/25 17:46:04;;;;;;;12.45;4.20;;;;;;;3.81;65.20;100930.41;10383429;28;20049;-64
2022/02/25 17:51:09;;;;;;;14.02;5.32;;;;;;;3.96;64.86;100926.75;10381364;28;20128;-64
2022/02/25 17:56:12;;;;;;;5.53;2.28;;;;;;;3.81;65.19;100921.78;10381897;28;20227;-64
2022/02/25 18:01:13;;;;;;;5.53;2.15;;;;;;;3.62;65.65;100933.31;10379054;28;20046;-64
2022/02/25 18:06:16;;;;;;;6.75;3.08;;;;;;;3.51;66.04;100930.88;10379826;28;20045;-64
2022/02/25 18:11:18;;;;;;;11.27;5.35;;;;;;;3.45;66.25;100932.72;10380881;28;20421;-64
2022/02/25 18:16:20;;;;;;;10.15;4.80;;;;;;;3.43;66.25;100952.56;10381300;28;20041;-64
2022/02/25 18:21:22;;;;;;;8.18;3.92;;;;;;;3.19;66.88;100940.84;10383433;28;20060;-64
2022/02/25 18:26:30;;;;;;;14.45;7.40;;;;;;;3.16;67.31;100945.19;10381689;28;20486;-64
2022/02/25 18:31:34;;;;;;;13.50;7.57;;;;;;;3.16;67.04;100945.19;10379249;28;20344;-64
2022/02/25 18:36:37;;;;;;;17.83;9.68;;;;;;;3.17;66.82;100954.66;10377621;28;20048;-64
2022/02/25 18:41:39;;;;;;;22.63;11.52;;;;;;;3.03;67.30;100963.44;10380940;28;20049;-64
2022/02/25 18:46:40;;;;;;;25.77;12.38;;;;;;;2.89;67.17;100974.81;10376929;28;20498;-64
2022/02/25 18:51:42;;;;;;;35.33;14.65;;;;;;;2.90;67.40;100986.88;10380388;28;20107;-64
2022/02/25 18:56:45;;;;;;;5.22;3.33;;;;;;;2.82;67.98;100999.88;10376433;28;20064;-64
2022/02/25 19:01:48;;;;;;;7.72;4.57;;;;;;;2.75;67.60;101007.69;10380452;28;20049;-64
2022/02/25 19:06:50;;;;;;;8.25;4.30;;;;;;;2.75;67.52;101021.47;10379120;28;20140;-64
2022/02/25 19:11:54;;;;;;;8.00;3.78;;;;;;;2.65;67.75;101031.91;10381210;28;20045;-64
2022/02/25 19:16:57;;;;;;;7.75;6.00;;;;;;;2.67;67.86;101043.94;10382619;28;20041;-63
2022/02/25 19:21:59;;;;;;;18.00;10.40;;;;;;;2.88;67.71;101042.88;10380267;28;20636;-64
2022/02/25 19:27:07;;;;;;;8.23;4.78;;;;;;;2.86;67.52;101050.66;10385584;28;20041;-68
2022/02/25 19:32:13;;;;;;;9.85;4.10;;;;;;;2.64;68.16;101056.03;10390934;28;20123;-68
2022/02/25 19:37:15;;;;;;;9.82;4.88;;;;;;;2.56;68.13;101058.66;10386595;28;20387;-68
2022/02/25 19:42:19;;;;;;;8.57;4.70;;;;;;;2.32;68.70;101061.47;10391601;28;20350;-69
2022/02/25 19:47:21;;;;;;;13.50;5.93;;;;;;;2.25;68.78;101062.41;10389350;28;20064;-69
2022/02/25 19:52:25;;;;;;;11.35;6.05;;;;;;;2.14;69.03;101064.19;10392757;28;20303;-69
2022/02/25 19:57:28;;;;;;;10.13;5.60;;;;;;;2.15;68.85;101079.66;10390024;28;20136;-69
2022/02/25 20:02:31;;;;;;;15.35;6.72;;;;;;;2.18;68.63;101086.53;10393458;28;20702;-68
2022/02/25 20:07:33;;;;;;;16.23;7.72;;;;;;;2.18;68.85;101102.03;10390896;28;20056;-69
2022/02/25 20:12:37;;;;;;;10.85;6.32;;;;;;;2.01;69.41;101109.03;10391390;28;20111;-69
2022/02/25 20:17:40;;;;;;;11.65;6.60;;;;;;;2.03;69.31;101110.72;10391578;28;20049;-68
2022/02/25 20:22:43;;;;;;;12.63;6.78;;;;;;;1.89;70.22;101127.16;10390769;28;20049;-69
2022/02/25 20:27:46;;;;;;;17.08;7.10;;;;;;;1.99;69.63;101146.88;10389236;28;20050;-69
2022/02/25 20:32:48;;;;;;;14.10;6.80;;;;;;;2.03;69.39;101153.75;10391603;28;20097;-69
2022/02/25 20:37:50;;;;;;;12.93;6.88;;;;;;;2.15;69.26;101161.41;10391072;28;20054;-69
2022/02/25 20:42:52;;;;;;;13.32;6.85;;;;;;;2.40;68.99;101164.69;10389413;28;20045;-68
2022/02/25 20:47:54;;;;;;;14.07;7.18;;;;;;;2.50;68.53;101184.41;10391067;28;20434;-69
2022/02/25 20:52:56;;;;;;;14.35;7.60;;;;;;;2.66;68.64;101183.44;10391419;28;20049;-68
2022/02/25 20:58:09;;;;;;;14.73;7.55;;;;;;;2.85;68.05;101185.84;10390953;28;20053;-68
2022/02/25 21:03:13;;;;;;;16.75;8.27;;;;;;;2.97;67.78;101179.69;10389978;28;20041;-68
2022/02/25 21:08:15;;;;;;;16.23;7.30;;;;;;;3.07;67.54;101190.84;10388898;28;20137;-68
2022/02/25 21:13:19;;;;;;;17.63;8.02;;;;;;;3.10;67.38;101201.13;10390357;28;20056;-67
2022/02/25 21:18:21;;;;;;;13.85;8.63;;;;;;;3.09;67.13;101199.44;10389148;28;20057;-67
2022/02/25 21:23:23;;;;;;;18.08;8.77;;;;;;;2.98;67.40;101210.72;10384559;28;20054;-68
2022/02/25 21:28:25;;;;;;;19.42;8.75;;;;;;;2.87;67.41;101211.66;10389996;28;20132;-68
2022/02/25 21:33:29;;;;;;;25.73;10.45;;;;;;;2.77;67.58;101223.81;10389589;28;20049;-68
2022/02/25 21:38:31;;;;;;;20.83;9.65;;;;;;;2.57;67.90;101228.25;10389251;28;20068;-69
2022/02/25 21:43:33;;;;;;;20.70;9.60;;;;;;;2.51;67.88;101233.47;10386531;28;20045;-68
2022/02/25 21:48:38;;;;;;;20.77;10.75;;;;;;;2.41;68.22;101228.34;10385539;28;20064;-68
2022/02/25 21:53:40;;;;;;;34.72;14.90;;;;;;;2.39;68.00;101232.66;10381044;28;20136;-68
2022/02/25 21:58:42;;;;;;;22.52;10.45;;;;;;;2.40;68.21;101234.41;10385846;28;20898;-68
2022/02/25 22:03:43;;;;;;;18.88;10.25;;;;;;;2.47;68.11;101248.97;10386218;28;20132;-69
2022/02/25 22:08:45;;;;;;;32.92;14.93;;;;;;;2.55;68.02;101244.63;10385803;28;20463;-69
2022/02/25 22:13:53;;;;;;;28.48;11.65;;;;;;;2.54;68.18;101256.66;10385722;28;20053;-69
2022/02/25 22:18:55;;;;;;;35.25;14.02;;;;;;;2.58;67.94;101257.53;10386170;28;20041;-69
2022/02/25 22:23:57;;;;;;;22.75;11.25;;;;;;;2.49;67.96;101263.59;10386562;28;20049;-68
2022/02/25 22:29:00;;;;;;;28.20;11.85;;;;;;;2.74;68.03;101272.91;10386986;28;20107;-69
2022/02/25 22:34:02;;;;;;;33.30;11.52;;;;;;;3.01;67.67;101277.00;10385682;28;20065;-69
2022/02/25 22:39:04;;;;;;;20.80;10.25;;;;;;;3.05;67.45;101282.16;10386131;28;20477;-69
2022/02/25 22:44:06;;;;;;;29.67;10.18;;;;;;;3.18;67.13;101282.91;10385097;28;20138;-70
2022/02/25 22:49:08;;;;;;;28.50;10.80;;;;;;;3.24;67.11;101287.16;10384492;28;20049;-69
2022/02/25 22:59:32;;;;;;;27.60;10.90;;;;;;;3.40;66.59;101294.78;10383953;28;20136;-70
2022/02/25 23:09:56;;;;;;;28.65;11.98;;;;;;;2.97;66.86;101306.31;10384563;28;20061;-69
2022/02/25 23:14:59;;;;;;;32.13;12.40;;;;;;;2.85;66.96;101314.16;10383695;28;20067;-69
2022/02/25 23:20:02;;;;;;;31.25;12.27;;;;;;;2.72;67.23;101315.97;10384038;28;20059;-69
2022/02/25 23:25:07;;;;;;;30.13;12.38;;;;;;;2.59;67.40;101316.03;10383966;28;20138;-69
2022/02/25 23:30:09;;;;;;;32.00;12.65;;;;;;;2.47;67.53;101322.13;10384353;28;20146;-69
2022/02/25 23:35:11;;;;;;;37.88;15.80;;;;;;;2.31;67.47;101319.63;10382798;28;20498;-69
2022/02/25 23:40:13;;;;;;;29.95;14.13;;;;;;;2.19;67.68;101318.78;10384056;28;20049;-69
2022/02/25 23:45:15;;;;;;;30.45;13.40;;;;;;;2.12;67.93;101337.75;10383675;28;20152;-69